Time;durP1;ratioP1;P1;durP2;ratioP2;P2;SDS_P1;SDS_P2;PMS_P1;PMS_P2;Temp;Humidity;BMP_temperature;BMP_pressure;BME280_temperature;BME280_humidity;BME280_pressure;Samples;Min_cycle;Max_cycle;Signal;HPM_P1;HPM_P2
2022/07/26 00:01:49;;;;;;;9.20;8.20;;;;;;;;;;4213586;28;20047;-59
2022/07/26 00:03:49;;;;;;;8.40;7.68;;;;;;;;;;4212372;28;20036;-58
2022/07/26 00:05:50;;;;;;;9.00;8.20;;;;;;;;;;4213535;28;20116;-58
2022/07/26 00:08:09;;;;;;;9.38;8.27;;;;;;;;;;4212935;28;20471;-59
2022/07/26 00:10:10;;;;;;;10.13;9.18;;;;;;;;;;4213656;28;20532;-59
2022/07/26 00:12:11;;;;;;;8.80;7.90;;;;;;;;;;4213510;28;20056;-58
2022/07/26 00:14:12;;;;;;;9.07;8.18;;;;;;;;;;4213855;28;20028;-58
2022/07/26 00:16:16;;;;;;;9.65;8.73;;;;;;;;;;4213187;28;20032;-59
2022/07/26 00:18:17;;;;;;;9.40;8.50;;;;;;;;;;4213707;28;20437;-59
2022/07/26 00:20:18;;;;;;;9.85;8.88;;;;;;;;;;4213043;28;20028;-59
2022/07/26 00:22:34;;;;;;;8.63;7.82;;;;;;;;;;4213453;28;20428;-59
2022/07/26 00:24:38;;;;;;;9.73;8.75;;;;;;;;;;4213628;28;20086;-58
2022/07/26 00:26:39;;;;;;;10.38;9.35;;;;;;;;;;4213520;28;20074;-58
2022/07/26 00:28:42;;;;;;;10.07;9.18;;;;;;;;;;4213925;28;20024;-59
2022/07/26 00:30:43;;;;;;;9.82;8.82;;;;;;;;;;4213830;28;20081;-59
2022/07/26 00:32:44;;;;;;;10.02;9.02;;;;;;;;;;4213144;28;20036;-58
2022/07/26 00:34:50;;;;;;;9.82;8.82;;;;;;;;;;4213276;28;20537;-59
2022/07/26 00:36:51;;;;;;;9.93;8.90;;;;;;;;;;4213572;28;20016;-59
2022/07/26 00:38:55;;;;;;;9.88;8.88;;;;;;;;;;4211943;28;20539;-59
2022/07/26 00:40:55;;;;;;;9.13;8.23;;;;;;;;;;4216758;28;20040;-59
2022/07/26 00:42:56;;;;;;;9.20;8.23;;;;;;;;;;4216840;28;20115;-59
2022/07/26 00:44:57;;;;;;;10.10;9.00;;;;;;;;;;4216419;28;20470;-59
2022/07/26 00:46:58;;;;;;;10.38;9.27;;;;;;;;;;4216415;28;20043;-59
2022/07/26 00:48:59;;;;;;;10.45;9.35;;;;;;;;;;4213135;28;20028;-58
2022/07/26 00:51:02;;;;;;;10.25;9.25;;;;;;;;;;4216374;28;20032;-59
2022/07/26 00:53:03;;;;;;;10.68;8.38;;;;;;;;;;4216074;28;20047;-59
2022/07/26 00:55:06;;;;;;;10.77;9.25;;;;;;;;;;4216393;28;20125;-58
2022/07/26 00:57:07;;;;;;;10.10;9.10;;;;;;;;;;4216353;28;20364;-58
2022/07/26 00:59:08;;;;;;;10.90;9.50;;;;;;;;;;4215599;28;20092;-57
2022/07/26 01:01:11;;;;;;;10.80;9.30;;;;;;;;;;4216878;28;20099;-58
2022/07/26 01:03:12;;;;;;;9.85;8.95;;;;;;;;;;4215839;28;20036;-58
2022/07/26 01:05:13;;;;;;;10.23;9.30;;;;;;;;;;4216096;28;20028;-57
2022/07/26 01:07:14;;;;;;;10.15;9.13;;;;;;;;;;4216210;28;20069;-58
2022/07/26 01:09:16;;;;;;;11.50;9.88;;;;;;;;;;4216129;28;20072;-58
2022/07/26 01:11:16;;;;;;;9.60;8.60;;;;;;;;;;4215838;28;20532;-58
2022/07/26 01:13:21;;;;;;;9.70;8.73;;;;;;;;;;4215922;28;20035;-58
2022/07/26 01:15:22;;;;;;;11.35;9.35;;;;;;;;;;4215656;28;20081;-57
2022/07/26 01:17:23;;;;;;;10.20;9.13;;;;;;;;;;4216124;28;20058;-60
2022/07/26 01:19:24;;;;;;;10.45;9.35;;;;;;;;;;4216146;28;20115;-59
2022/07/26 01:21:28;;;;;;;10.75;8.98;;;;;;;;;;4216287;28;20032;-59
2022/07/26 01:23:32;;;;;;;9.10;8.25;;;;;;;;;;4210464;28;20097;-60
2022/07/26 01:25:34;;;;;;;9.60;8.60;;;;;;;;;;4216088;28;20040;-60
2022/07/26 01:27:38;;;;;;;9.68;8.68;;;;;;;;;;4216031;28;20081;-59
2022/07/26 01:29:39;;;;;;;9.77;8.77;;;;;;;;;;4214363;28;20032;-59
2022/07/26 01:31:40;;;;;;;9.52;8.48;;;;;;;;;;4215984;28;20028;-57
2022/07/26 01:33:41;;;;;;;9.80;8.85;;;;;;;;;;4214765;28;20109;-58
2022/07/26 01:35:44;;;;;;;10.18;9.15;;;;;;;;;;4215707;28;20039;-58
2022/07/26 01:37:46;;;;;;;9.70;8.80;;;;;;;;;;4215649;28;20040;-58
2022/07/26 01:39:47;;;;;;;9.80;8.60;;;;;;;;;;4215264;28;20028;-58
2022/07/26 01:41:48;;;;;;;10.15;9.18;;;;;;;;;;4215937;28;20428;-59
2022/07/26 01:43:49;;;;;;;9.63;8.45;;;;;;;;;;4215503;28;20039;-58
2022/07/26 01:45:49;;;;;;;10.13;9.02;;;;;;;;;;4215547;28;20474;-59
2022/07/26 01:47:50;;;;;;;9.57;8.68;;;;;;;;;;4214423;28;20024;-59
2022/07/26 01:49:51;;;;;;;10.60;9.48;;;;;;;;;;4215761;28;20036;-59
2022/07/26 01:51:55;;;;;;;10.55;8.93;;;;;;;;;;4215695;28;20376;-58
2022/07/26 01:53:56;;;;;;;11.23;10.20;;;;;;;;;;4215486;28;20441;-58
2022/07/26 01:55:59;;;;;;;9.77;8.88;;;;;;;;;;4215824;28;20111;-58
2022/07/26 01:58:00;;;;;;;9.77;8.87;;;;;;;;;;4215591;28;20434;-57
2022/07/26 02:00:05;;;;;;;10.77;9.75;;;;;;;;;;4215235;28;20044;-57
2022/07/26 02:02:09;;;;;;;9.50;8.60;;;;;;;;;;4215819;28;20073;-59
2022/07/26 02:04:57;;;;;;;9.85;8.85;;;;;;;;;;4215816;28;20413;-57
2022/07/26 02:06:30;;;;;;;8.63;7.68;;;;;;;;;;4215810;28;20028;-59
2022/07/26 02:08:31;;;;;;;8.50;7.60;;;;;;;;;;4215658;28;20182;-59
2022/07/26 02:12:54;;;;;;;7.45;6.70;;;;;;;;;;4215741;28;20032;-59
2022/07/26 02:14:55;;;;;;;8.10;6.38;;;;;;;;;;4215506;28;20128;-59
2022/07/26 02:16:58;;;;;;;7.43;6.72;;;;;;;;;;4216255;28;20028;-59
2022/07/26 02:18:59;;;;;;;10.07;6.93;;;;;;;;;;4215756;28;20040;-59
2022/07/26 02:21:00;;;;;;;6.15;5.35;;;;;;;;;;4215599;28;20089;-58
2022/07/26 02:23:02;;;;;;;6.88;5.78;;;;;;;;;;4215018;28;20032;-59
2022/07/26 02:25:03;;;;;;;7.68;6.97;;;;;;;;;;4215406;28;20020;-59
2022/07/26 02:27:07;;;;;;;6.45;5.85;;;;;;;;;;4214889;28;20406;-59
2022/07/26 02:29:08;;;;;;;7.82;5.82;;;;;;;;;;4214637;28;20430;-59
2022/07/26 02:31:09;;;;;;;7.47;5.32;;;;;;;;;;4215121;28;20032;-59
2022/07/26 02:33:13;;;;;;;7.20;5.80;;;;;;;;;;4214780;28;20043;-59
2022/07/26 02:35:14;;;;;;;6.82;6.22;;;;;;;;;;4210801;28;20542;-59
2022/07/26 02:37:15;;;;;;;6.80;6.10;;;;;;;;;;4214926;28;20185;-59
2022/07/26 02:39:16;;;;;;;5.55;5.05;;;;;;;;;;4214407;28;20044;-58
2022/07/26 02:41:19;;;;;;;6.20;5.15;;;;;;;;;;4214420;28;20028;-58
2022/07/26 02:43:20;;;;;;;6.20;5.37;;;;;;;;;;4214877;28;20524;-59
2022/07/26 02:45:21;;;;;;;6.07;5.47;;;;;;;;;;4215052;28;20040;-58
2022/07/26 02:47:22;;;;;;;6.32;5.15;;;;;;;;;;4214743;28;20032;-59
2022/07/26 02:49:23;;;;;;;7.85;5.03;;;;;;;;;;4214245;28;20030;-59
2022/07/26 02:51:24;;;;;;;5.63;5.10;;;;;;;;;;4215047;28;20534;-59
2022/07/26 02:53:27;;;;;;;5.45;4.93;;;;;;;;;;4214334;28;20040;-59
2022/07/26 02:55:28;;;;;;;5.90;5.30;;;;;;;;;;4214638;28;20036;-59
2022/07/26 02:57:29;;;;;;;5.32;4.82;;;;;;;;;;4214600;28;20093;-59
2022/07/26 02:59:33;;;;;;;6.72;5.30;;;;;;;;;;4214634;28;20457;-58
2022/07/26 03:01:34;;;;;;;5.85;5.25;;;;;;;;;;4214374;28;20035;-58
2022/07/26 03:03:35;;;;;;;5.55;5.00;;;;;;;;;;4214039;28;20122;-59
2022/07/26 03:05:36;;;;;;;5.70;5.10;;;;;;;;;;4214494;28;20028;-59
2022/07/26 03:07:36;;;;;;;5.65;5.15;;;;;;;;;;4214417;28;20391;-59
2022/07/26 03:09:37;;;;;;;6.22;4.50;;;;;;;;;;4213871;28;20039;-59
2022/07/26 03:11:38;;;;;;;4.63;4.15;;;;;;;;;;4214726;28;20059;-59
2022/07/26 03:13:39;;;;;;;6.72;5.18;;;;;;;;;;4214565;28;20467;-59
2022/07/26 03:15:40;;;;;;;4.55;4.15;;;;;;;;;;4214427;28;20032;-59
2022/07/26 03:17:41;;;;;;;5.43;4.45;;;;;;;;;;4214168;28;20111;-59
2022/07/26 03:19:42;;;;;;;5.55;5.05;;;;;;;;;;4213924;28;20501;-59
2022/07/26 03:21:43;;;;;;;4.65;4.15;;;;;;;;;;4214356;28;20036;-59
2022/07/26 03:23:46;;;;;;;5.03;4.53;;;;;;;;;;4214551;28;20134;-59
2022/07/26 03:25:47;;;;;;;4.80;4.30;;;;;;;;;;4213213;28;20106;-59
2022/07/26 03:27:48;;;;;;;4.88;4.40;;;;;;;;;;4214175;28;20028;-59
2022/07/26 03:29:49;;;;;;;4.05;3.67;;;;;;;;;;4213854;28;20070;-59
2022/07/26 03:31:50;;;;;;;5.43;4.35;;;;;;;;;;4214194;28;20032;-58
2022/07/26 03:33:51;;;;;;;5.40;4.00;;;;;;;;;;4214197;28;20040;-58
2022/07/26 03:35:52;;;;;;;4.20;3.90;;;;;;;;;;4214207;28;20031;-58
2022/07/26 03:37:53;;;;;;;4.60;4.20;;;;;;;;;;4214475;28;20118;-58
2022/07/26 03:39:54;;;;;;;5.00;3.78;;;;;;;;;;4213952;28;20040;-58
2022/07/26 03:41:55;;;;;;;4.60;3.92;;;;;;;;;;4214027;28;20085;-58
2022/07/26 03:43:56;;;;;;;4.40;4.00;;;;;;;;;;4214241;28;20513;-58
2022/07/26 03:45:57;;;;;;;4.63;3.70;;;;;;;;;;4214552;28;20028;-58
2022/07/26 03:47:58;;;;;;;5.00;4.30;;;;;;;;;;4214376;28;20055;-58
2022/07/26 03:49:59;;;;;;;4.22;3.78;;;;;;;;;;4213583;28;20124;-58
2022/07/26 03:52:00;;;;;;;4.63;4.15;;;;;;;;;;4214408;28;20039;-58
2022/07/26 03:54:01;;;;;;;4.47;3.60;;;;;;;;;;4214359;28;20048;-58
2022/07/26 03:58:21;;;;;;;4.60;4.18;;;;;;;;;;4214415;28;20024;-58
2022/07/26 04:00:22;;;;;;;4.88;4.38;;;;;;;;;;4213920;28;20136;-58
2022/07/26 04:02:23;;;;;;;4.97;4.53;;;;;;;;;;4213849;28;20036;-58
2022/07/26 04:04:23;;;;;;;4.47;4.07;;;;;;;;;;4213114;28;20028;-58
2022/07/26 04:06:24;;;;;;;5.45;3.80;;;;;;;;;;4214391;28;20126;-58
2022/07/26 04:08:25;;;;;;;4.20;3.80;;;;;;;;;;4214074;28;20028;-58
2022/07/26 04:10:26;;;;;;;6.50;3.75;;;;;;;;;;4213386;28;20093;-58
2022/07/26 04:12:27;;;;;;;4.32;3.92;;;;;;;;;;4213788;28;20036;-58
2022/07/26 04:14:28;;;;;;;4.75;3.80;;;;;;;;;;4214890;28;20064;-58
2022/07/26 04:16:29;;;;;;;4.47;4.07;;;;;;;;;;4217518;28;20036;-58
2022/07/26 04:18:30;;;;;;;4.10;3.78;;;;;;;;;;4217189;28;20055;-58
2022/07/26 04:20:33;;;;;;;4.22;3.65;;;;;;;;;;4217097;28;20076;-58
2022/07/26 04:22:35;;;;;;;5.23;4.13;;;;;;;;;;4217078;28;20032;-58
2022/07/26 04:24:35;;;;;;;4.25;3.67;;;;;;;;;;4216884;28;20100;-58
2022/07/26 04:26:36;;;;;;;4.43;3.58;;;;;;;;;;4216799;28;20107;-58
2022/07/26 04:28:40;;;;;;;4.10;3.70;;;;;;;;;;4216851;28;20085;-58
2022/07/26 04:30:41;;;;;;;4.10;3.70;;;;;;;;;;4216837;28;20074;-58
2022/07/26 04:32:43;;;;;;;4.13;3.72;;;;;;;;;;4216553;28;20032;-58
2022/07/26 04:34:46;;;;;;;4.43;4.03;;;;;;;;;;4216642;28;20685;-58
2022/07/26 04:36:47;;;;;;;6.23;3.63;;;;;;;;;;4216870;28;20097;-58
2022/07/26 04:38:51;;;;;;;3.97;3.55;;;;;;;;;;4216268;28;20032;-58
2022/07/26 04:40:55;;;;;;;5.70;3.65;;;;;;;;;;4217145;28;20081;-58
2022/07/26 04:42:55;;;;;;;4.85;3.70;;;;;;;;;;4216593;28;20040;-58
2022/07/26 04:44:56;;;;;;;5.40;4.07;;;;;;;;;;4216961;28;20421;-58
2022/07/26 04:47:00;;;;;;;4.38;3.97;;;;;;;;;;4216778;28;20058;-58
2022/07/26 04:49:01;;;;;;;4.03;3.50;;;;;;;;;;4216440;28;20028;-58
2022/07/26 04:51:02;;;;;;;5.30;3.90;;;;;;;;;;4216957;28;20265;-58
2022/07/26 04:53:03;;;;;;;4.45;3.65;;;;;;;;;;4216563;28;20047;-58
2022/07/26 04:55:04;;;;;;;4.07;3.67;;;;;;;;;;4216667;28;20067;-58
2022/07/26 04:57:05;;;;;;;3.75;3.42;;;;;;;;;;4216528;28;20028;-58
2022/07/26 04:59:06;;;;;;;4.03;3.63;;;;;;;;;;4215949;28;20342;-58
2022/07/26 05:01:07;;;;;;;4.82;3.90;;;;;;;;;;4216350;28;20024;-58
2022/07/26 05:03:10;;;;;;;4.85;3.75;;;;;;;;;;4216596;28;20066;-59
2022/07/26 05:05:11;;;;;;;4.85;4.03;;;;;;;;;;4216520;28;20375;-58
2022/07/26 05:07:12;;;;;;;4.43;4.03;;;;;;;;;;4216784;28;20035;-58
2022/07/26 05:09:13;;;;;;;4.00;3.60;;;;;;;;;;4216510;28;20032;-58
2022/07/26 05:11:14;;;;;;;4.20;3.80;;;;;;;;;;4216180;28;20067;-58
2022/07/26 05:13:17;;;;;;;3.92;3.53;;;;;;;;;;4216638;28;20093;-58
2022/07/26 05:15:18;;;;;;;4.20;3.45;;;;;;;;;;4216091;28;20036;-58
2022/07/26 05:17:22;;;;;;;4.55;4.00;;;;;;;;;;4216530;28;20364;-58
2022/07/26 05:19:23;;;;;;;4.40;4.00;;;;;;;;;;4215727;28;20089;-58
2022/07/26 05:21:24;;;;;;;4.38;3.95;;;;;;;;;;4216431;28;20449;-58
2022/07/26 05:23:24;;;;;;;4.38;3.97;;;;;;;;;;4216197;28;20110;-58
2022/07/26 05:25:25;;;;;;;3.45;3.13;;;;;;;;;;4216088;28;20020;-58
2022/07/26 05:27:26;;;;;;;4.28;3.55;;;;;;;;;;4216050;28;20028;-58
2022/07/26 05:29:27;;;;;;;4.38;3.90;;;;;;;;;;4215889;28;20058;-58
2022/07/26 05:31:28;;;;;;;4.25;3.85;;;;;;;;;;4216264;28;20028;-58
2022/07/26 05:33:35;;;;;;;3.95;3.65;;;;;;;;;;4216236;28;20074;-58
2022/07/26 05:35:35;;;;;;;5.50;4.45;;;;;;;;;;4216279;28;20073;-58
2022/07/26 05:37:36;;;;;;;5.18;3.83;;;;;;;;;;4215819;28;20515;-58
2022/07/26 05:39:37;;;;;;;4.78;4.28;;;;;;;;;;4215566;28;20055;-58
2022/07/26 05:41:38;;;;;;;4.60;3.78;;;;;;;;;;4215878;28;20094;-58
2022/07/26 05:43:39;;;;;;;5.00;3.85;;;;;;;;;;4216068;28;20060;-58
2022/07/26 05:45:40;;;;;;;4.85;4.00;;;;;;;;;;4215929;28;20027;-58
2022/07/26 05:47:41;;;;;;;4.15;3.83;;;;;;;;;;4215966;28;20387;-59
2022/07/26 05:49:42;;;;;;;4.10;3.70;;;;;;;;;;4215208;28;20483;-59
2022/07/26 05:51:43;;;;;;;4.53;4.03;;;;;;;;;;4215825;28;20398;-58
2022/07/26 05:53:43;;;;;;;4.57;4.03;;;;;;;;;;4215439;28;20040;-58
2022/07/26 05:55:44;;;;;;;4.88;3.78;;;;;;;;;;4214443;28;20418;-58
2022/07/26 05:57:48;;;;;;;5.55;4.55;;;;;;;;;;4215437;28;20028;-58
2022/07/26 05:59:49;;;;;;;4.88;4.25;;;;;;;;;;4215759;28;20028;-58
2022/07/26 06:01:50;;;;;;;4.13;3.72;;;;;;;;;;4215456;28;20028;-58
2022/07/26 06:03:51;;;;;;;4.70;4.20;;;;;;;;;;4215275;28;20082;-58
2022/07/26 06:05:53;;;;;;;4.07;3.70;;;;;;;;;;4215173;28;20097;-58
2022/07/26 06:07:53;;;;;;;6.13;4.05;;;;;;;;;;4215307;28;20467;-58
2022/07/26 06:09:54;;;;;;;4.63;4.22;;;;;;;;;;4215019;28;20097;-58
2022/07/26 06:11:55;;;;;;;4.55;4.15;;;;;;;;;;4215627;28;20032;-58
2022/07/26 06:13:56;;;;;;;5.13;4.05;;;;;;;;;;4215525;28;20028;-58
2022/07/26 06:15:57;;;;;;;4.53;3.95;;;;;;;;;;4214300;28;20036;-58
2022/07/26 06:17:58;;;;;;;5.13;4.10;;;;;;;;;;4215160;28;20463;-58
2022/07/26 06:19:59;;;;;;;4.30;3.90;;;;;;;;;;4214681;28;20391;-58
2022/07/26 06:22:00;;;;;;;4.70;4.20;;;;;;;;;;4215213;28;20503;-58
2022/07/26 06:24:00;;;;;;;4.35;3.70;;;;;;;;;;4214968;28;20035;-58
2022/07/26 06:26:02;;;;;;;4.32;3.92;;;;;;;;;;4215531;28;20076;-58
2022/07/26 06:28:03;;;;;;;4.25;3.85;;;;;;;;;;4215003;28;20093;-58
2022/07/26 06:30:07;;;;;;;5.03;3.80;;;;;;;;;;4214716;28;20097;-58
2022/07/26 06:32:08;;;;;;;5.10;3.97;;;;;;;;;;4214873;28;20035;-58
2022/07/26 06:34:09;;;;;;;4.78;4.28;;;;;;;;;;4215048;28;20285;-58
2022/07/26 06:36:10;;;;;;;6.22;4.15;;;;;;;;;;4214667;28;20036;-58
2022/07/26 06:38:11;;;;;;;4.68;4.10;;;;;;;;;;4213933;28;20357;-58
2022/07/26 06:40:12;;;;;;;4.88;3.70;;;;;;;;;;4214311;28;20034;-58
2022/07/26 06:42:13;;;;;;;5.00;4.47;;;;;;;;;;4215043;28;20513;-58
2022/07/26 06:44:14;;;;;;;5.03;4.53;;;;;;;;;;4214927;28;20390;-58
2022/07/26 06:46:15;;;;;;;5.38;4.00;;;;;;;;;;4214813;28;20090;-58
2022/07/26 06:48:19;;;;;;;6.32;4.13;;;;;;;;;;4215140;28;20036;-58
2022/07/26 06:50:20;;;;;;;4.45;4.00;;;;;;;;;;4213628;28;20036;-58
2022/07/26 06:52:21;;;;;;;5.95;4.45;;;;;;;;;;4214511;28;20121;-58
2022/07/26 06:54:21;;;;;;;4.65;3.70;;;;;;;;;;4213731;28;20044;-58
2022/07/26 06:56:22;;;;;;;4.45;4.05;;;;;;;;;;4214162;28;20051;-58
2022/07/26 06:58:24;;;;;;;4.57;4.18;;;;;;;;;;4214415;28;20035;-58
2022/07/26 07:00:24;;;;;;;5.05;4.20;;;;;;;;;;4214151;28;20032;-58
2022/07/26 07:02:25;;;;;;;4.60;4.00;;;;;;;;;;4214486;28;20451;-58
2022/07/26 07:04:28;;;;;;;4.45;3.80;;;;;;;;;;4213274;28;20043;-58
2022/07/26 07:06:29;;;;;;;4.63;4.22;;;;;;;;;;4215002;28;20451;-58
2022/07/26 07:08:30;;;;;;;5.55;4.10;;;;;;;;;;4214305;28;20043;-58
2022/07/26 07:10:31;;;;;;;7.30;4.57;;;;;;;;;;4214383;28;20024;-58
2022/07/26 07:12:34;;;;;;;4.38;3.67;;;;;;;;;;4214392;28;20487;-57
2022/07/26 07:14:36;;;;;;;4.43;4.03;;;;;;;;;;4214260;28;20113;-57
2022/07/26 07:16:36;;;;;;;5.72;3.75;;;;;;;;;;4214269;28;20109;-57
2022/07/26 07:18:37;;;;;;;5.85;4.30;;;;;;;;;;4214500;28;20036;-58
2022/07/26 07:20:39;;;;;;;4.95;4.07;;;;;;;;;;4213804;28;20032;-58
2022/07/26 07:22:40;;;;;;;4.40;4.00;;;;;;;;;;4214247;28;20093;-58
2022/07/26 07:24:41;;;;;;;4.70;4.20;;;;;;;;;;4214480;28;20305;-57
2022/07/26 07:26:42;;;;;;;4.65;3.58;;;;;;;;;;4213996;28;20101;-57
2022/07/26 07:28:46;;;;;;;5.38;4.10;;;;;;;;;;4214076;28;20044;-58
2022/07/26 07:30:47;;;;;;;4.63;4.22;;;;;;;;;;4214089;28;20028;-58
2022/07/26 07:32:48;;;;;;;4.88;4.32;;;;;;;;;;4213930;28;20031;-58
2022/07/26 07:34:49;;;;;;;6.03;4.13;;;;;;;;;;4214303;28;20132;-57
2022/07/26 07:36:50;;;;;;;4.72;4.22;;;;;;;;;;4214636;28;20028;-57
2022/07/26 07:38:51;;;;;;;5.22;4.47;;;;;;;;;;4213659;28;20040;-57
2022/07/26 07:40:52;;;;;;;6.95;4.53;;;;;;;;;;4214482;28;20090;-57
2022/07/26 07:42:53;;;;;;;4.50;3.83;;;;;;;;;;4214553;28;20039;-58
2022/07/26 07:44:56;;;;;;;8.07;4.25;;;;;;;;;;4214439;28;20036;-57
2022/07/26 07:46:57;;;;;;;5.00;4.32;;;;;;;;;;4214033;28;20032;-58
2022/07/26 07:48:58;;;;;;;5.15;4.50;;;;;;;;;;4213652;28;20040;-58
2022/07/26 07:50:59;;;;;;;5.57;4.22;;;;;;;;;;4213647;28;20039;-57
2022/07/26 07:53:00;;;;;;;4.93;4.53;;;;;;;;;;4213773;28;20044;-58
2022/07/26 07:55:01;;;;;;;4.38;3.97;;;;;;;;;;4214298;28;20056;-58
2022/07/26 07:57:01;;;;;;;5.85;4.80;;;;;;;;;;4214173;28;20035;-58
2022/07/26 07:59:05;;;;;;;4.75;4.30;;;;;;;;;;4213596;28;20032;-58
2022/07/26 08:01:06;;;;;;;5.40;4.80;;;;;;;;;;4213977;28;20027;-57
2022/07/26 08:03:09;;;;;;;5.00;4.60;;;;;;;;;;4214311;28;20036;-57
2022/07/26 08:05:10;;;;;;;4.85;4.38;;;;;;;;;;4213887;28;20036;-57
2022/07/26 08:07:11;;;;;;;6.60;4.47;;;;;;;;;;4213857;28;20032;-57
2022/07/26 08:09:15;;;;;;;4.43;4.00;;;;;;;;;;4213449;28;20032;-57
2022/07/26 08:11:16;;;;;;;6.78;4.30;;;;;;;;;;4213698;28;20036;-58
2022/07/26 08:13:17;;;;;;;4.45;4.05;;;;;;;;;;4214093;28;20035;-58
2022/07/26 08:15:18;;;;;;;7.28;4.60;;;;;;;;;;4213660;28;20175;-58
2022/07/26 08:17:19;;;;;;;5.20;4.38;;;;;;;;;;4213772;28;20032;-57
2022/07/26 08:19:19;;;;;;;4.93;4.40;;;;;;;;;;4213784;28;20056;-58
2022/07/26 08:21:23;;;;;;;5.15;4.30;;;;;;;;;;4213647;28;20040;-58
2022/07/26 08:23:24;;;;;;;6.00;4.00;;;;;;;;;;4213661;28;20089;-58
2022/07/26 08:25:28;;;;;;;4.93;4.45;;;;;;;;;;4213608;28;20028;-58
2022/07/26 08:27:28;;;;;;;4.15;3.70;;;;;;;;;;4213647;28;20145;-58
2022/07/26 08:29:29;;;;;;;4.38;3.97;;;;;;;;;;4213892;28;20020;-58
2022/07/26 08:31:30;;;;;;;5.20;3.50;;;;;;;;;;4213472;28;20034;-58
2022/07/26 08:33:31;;;;;;;4.22;3.70;;;;;;;;;;4213330;28;20114;-58
2022/07/26 08:35:32;;;;;;;3.60;3.30;;;;;;;;;;4213790;28;20078;-57
2022/07/26 08:37:33;;;;;;;4.57;3.97;;;;;;;;;;4213892;28;20029;-57
2022/07/26 08:39:34;;;;;;;6.38;3.63;;;;;;;;;;4213630;28;20055;-58
2022/07/26 08:41:39;;;;;;;4.05;3.65;;;;;;;;;;4213626;28;20569;-58
2022/07/26 08:43:43;;;;;;;3.03;2.83;;;;;;;;;;4213471;28;20040;-57
2022/07/26 08:45:44;;;;;;;3.95;3.03;;;;;;;;;;4213940;28;20453;-58
2022/07/26 08:47:45;;;;;;;4.82;3.72;;;;;;;;;;4213518;28;20036;-58
2022/07/26 08:49:46;;;;;;;3.90;3.60;;;;;;;;;;4213441;28;20021;-58
2022/07/26 08:51:47;;;;;;;3.75;3.42;;;;;;;;;;4213320;28;20036;-58
2022/07/26 08:53:48;;;;;;;3.95;3.58;;;;;;;;;;4213277;28;20079;-58
2022/07/26 08:55:49;;;;;;;8.55;3.58;;;;;;;;;;4213252;28;20105;-58
2022/07/26 08:57:50;;;;;;;3.38;3.08;;;;;;;;;;4213892;28;20017;-57
2022/07/26 09:00:09;;;;;;;4.10;3.42;;;;;;;;;;4213073;28;20065;-57
2022/07/26 09:02:11;;;;;;;3.20;2.90;;;;;;;;;;4216379;28;20032;-58
2022/07/26 09:04:28;;;;;;;4.53;3.10;;;;;;;;;;4216412;28;20382;-58
2022/07/26 09:06:29;;;;;;;2.85;2.65;;;;;;;;;;4216320;28;20027;-57
2022/07/26 09:08:30;;;;;;;2.95;2.72;;;;;;;;;;4215334;28;20440;-58
2022/07/26 09:10:33;;;;;;;3.47;3.00;;;;;;;;;;4216394;28;20467;-58
2022/07/26 09:12:35;;;;;;;3.22;2.80;;;;;;;;;;4216314;28;20509;-57
2022/07/26 09:14:39;;;;;;;3.42;2.78;;;;;;;;;;4216147;28;20536;-57
2022/07/26 09:16:40;;;;;;;3.03;2.75;;;;;;;;;;4216155;28;20368;-58
2022/07/26 09:18:41;;;;;;;4.32;2.67;;;;;;;;;;4216065;28;20058;-58
2022/07/26 09:20:45;;;;;;;3.78;2.55;;;;;;;;;;4216172;28;20071;-58
2022/07/26 09:23:06;;;;;;;4.18;2.50;;;;;;;;;;4216133;28;20036;-57
2022/07/26 09:25:23;;;;;;;5.20;2.70;;;;;;;;;;4216014;28;20101;-58
2022/07/26 09:27:32;;;;;;;2.60;2.40;;;;;;;;;;4216102;28;20085;-57
2022/07/26 09:29:45;;;;;;;2.90;2.70;;;;;;;;;;4216169;28;20109;-57
2022/07/26 09:31:46;;;;;;;2.85;2.65;;;;;;;;;;4215922;28;20467;-58
2022/07/26 09:33:50;;;;;;;4.82;2.40;;;;;;;;;;4216381;28;20020;-57
2022/07/26 09:36:01;;;;;;;3.42;2.58;;;;;;;;;;4215981;28;20112;-57
2022/07/26 09:38:11;;;;;;;2.60;2.40;;;;;;;;;;4215937;28;20027;-58
2022/07/26 09:40:15;;;;;;;2.92;2.63;;;;;;;;;;4215623;28;20054;-58
2022/07/26 09:42:16;;;;;;;2.72;2.40;;;;;;;;;;4215798;28;20437;-57
2022/07/26 09:44:24;;;;;;;2.70;2.50;;;;;;;;;;4215864;28;20093;-58
2022/07/26 09:46:26;;;;;;;3.55;2.40;;;;;;;;;;4215619;28;20036;-58
2022/07/26 09:48:28;;;;;;;2.90;2.20;;;;;;;;;;4215645;28;20024;-57
2022/07/26 09:50:31;;;;;;;2.35;2.15;;;;;;;;;;4215703;28;20365;-58
2022/07/26 09:52:32;;;;;;;3.28;2.50;;;;;;;;;;4214651;28;20028;-57
2022/07/26 09:54:34;;;;;;;4.20;2.40;;;;;;;;;;4215973;28;20393;-58
2022/07/26 09:56:42;;;;;;;3.33;2.50;;;;;;;;;;4215558;28;20109;-57
2022/07/26 09:58:43;;;;;;;2.53;2.33;;;;;;;;;;4215516;28;20085;-58
2022/07/26 10:00:44;;;;;;;3.00;2.70;;;;;;;;;;4215315;28;20090;-58
2022/07/26 10:02:45;;;;;;;3.40;1.90;;;;;;;;;;4214371;28;20044;-58
2022/07/26 10:04:46;;;;;;;2.83;2.45;;;;;;;;;;4215433;28;20036;-58
2022/07/26 10:06:47;;;;;;;3.50;2.30;;;;;;;;;;4215381;28;20040;-58
2022/07/26 10:08:48;;;;;;;4.13;2.30;;;;;;;;;;4215015;28;20498;-58
2022/07/26 10:10:54;;;;;;;3.88;2.30;;;;;;;;;;4215485;28;20435;-58
2022/07/26 10:13:01;;;;;;;2.58;2.30;;;;;;;;;;4215428;28;20032;-58
2022/07/26 10:15:03;;;;;;;2.00;1.80;;;;;;;;;;4215604;28;20081;-59
2022/07/26 10:17:22;;;;;;;2.40;2.20;;;;;;;;;;4215153;28;20067;-59
2022/07/26 10:19:38;;;;;;;2.80;1.92;;;;;;;;;;4214918;28;20040;-59
2022/07/26 10:21:48;;;;;;;2.58;2.00;;;;;;;;;;4215723;28;20027;-58
2022/07/26 10:23:57;;;;;;;2.47;1.92;;;;;;;;;;4215430;28;20040;-58
2022/07/26 10:26:01;;;;;;;2.13;1.92;;;;;;;;;;4215111;28;20089;-58
2022/07/26 10:28:02;;;;;;;2.20;1.90;;;;;;;;;;4215195;28;20383;-59
2022/07/26 10:30:30;;;;;;;2.15;1.95;;;;;;;;;;4215325;28;20051;-58
2022/07/26 10:32:31;;;;;;;3.28;1.83;;;;;;;;;;4211134;28;20472;-59
2022/07/26 10:34:36;;;;;;;2.20;2.00;;;;;;;;;;4214951;28;20471;-59
2022/07/26 10:36:40;;;;;;;2.97;2.15;;;;;;;;;;4214968;28;20044;-58
2022/07/26 10:38:56;;;;;;;2.47;2.05;;;;;;;;;;4215048;28;20081;-58
2022/07/26 10:41:06;;;;;;;1.90;1.80;;;;;;;;;;4214926;28;20093;-58
2022/07/26 10:43:07;;;;;;;2.42;1.65;;;;;;;;;;4214724;28;20106;-58
2022/07/26 10:45:21;;;;;;;2.67;2.00;;;;;;;;;;4214762;28;20036;-58
2022/07/26 10:47:22;;;;;;;2.65;2.03;;;;;;;;;;4214781;28;20437;-58
2022/07/26 10:49:30;;;;;;;1.90;1.80;;;;;;;;;;4214882;28;20016;-59
2022/07/26 10:51:40;;;;;;;2.38;2.17;;;;;;;;;;4214519;28;20035;-58
2022/07/26 10:53:41;;;;;;;2.42;1.85;;;;;;;;;;4214654;28;20483;-58
2022/07/26 10:55:46;;;;;;;1.98;1.75;;;;;;;;;;4214743;28;20081;-58
2022/07/26 10:57:52;;;;;;;1.67;1.58;;;;;;;;;;4214510;28;20036;-59
2022/07/26 10:59:57;;;;;;;2.25;1.85;;;;;;;;;;4214190;28;20434;-58
2022/07/26 11:01:58;;;;;;;2.03;1.70;;;;;;;;;;4214516;28;20475;-59
2022/07/26 11:03:58;;;;;;;3.22;1.80;;;;;;;;;;4214230;28;20119;-58
2022/07/26 11:06:07;;;;;;;4.18;2.00;;;;;;;;;;4214520;28;20060;-58
2022/07/26 11:08:09;;;;;;;3.63;1.90;;;;;;;;;;4214420;28;20467;-58
2022/07/26 11:10:19;;;;;;;2.28;1.60;;;;;;;;;;4214188;28;20441;-58
2022/07/26 11:12:23;;;;;;;1.92;1.70;;;;;;;;;;4214327;28;20089;-58
2022/07/26 11:14:24;;;;;;;2.22;1.70;;;;;;;;;;4214478;28;20086;-58
2022/07/26 11:16:25;;;;;;;3.20;2.00;;;;;;;;;;4214079;28;20044;-59
2022/07/26 11:18:31;;;;;;;2.83;1.92;;;;;;;;;;4214727;28;20012;-58
2022/07/26 11:20:32;;;;;;;1.70;1.60;;;;;;;;;;4213927;28;20540;-59
2022/07/26 11:22:34;;;;;;;3.13;1.65;;;;;;;;;;4212923;28;20035;-58
2022/07/26 11:24:39;;;;;;;2.47;1.65;;;;;;;;;;4213757;28;20036;-58
2022/07/26 11:26:43;;;;;;;2.85;1.80;;;;;;;;;;4214206;28;20032;-58
2022/07/26 11:28:48;;;;;;;2.00;1.73;;;;;;;;;;4214221;28;20101;-59
2022/07/26 11:30:56;;;;;;;2.45;1.70;;;;;;;;;;4214082;28;20032;-59
2022/07/26 11:33:00;;;;;;;1.92;1.73;;;;;;;;;;4213805;28;20108;-57
2022/07/26 11:35:02;;;;;;;1.52;1.42;;;;;;;;;;4214134;28;20470;-58
2022/07/26 11:37:03;;;;;;;2.08;1.58;;;;;;;;;;4213621;28;20044;-58
2022/07/26 11:39:07;;;;;;;2.42;1.77;;;;;;;;;;4213637;28;20062;-58
2022/07/26 11:41:08;;;;;;;4.50;1.48;;;;;;;;;;4213920;28;20032;-58
2022/07/26 11:43:09;;;;;;;1.60;1.50;;;;;;;;;;4213829;28;20054;-57
2022/07/26 11:45:13;;;;;;;1.40;1.30;;;;;;;;;;4213702;28;20042;-57
2022/07/26 11:47:16;;;;;;;1.45;1.30;;;;;;;;;;4214025;28;20089;-57
2022/07/26 11:49:18;;;;;;;1.83;1.58;;;;;;;;;;4213642;28;20028;-58
2022/07/26 11:51:20;;;;;;;2.15;1.58;;;;;;;;;;4213868;28;20039;-58
2022/07/26 11:53:21;;;;;;;3.85;1.77;;;;;;;;;;4213624;28;20044;-58
2022/07/26 11:55:29;;;;;;;1.80;1.48;;;;;;;;;;4213833;28;20092;-58
2022/07/26 11:57:30;;;;;;;2.33;1.60;;;;;;;;;;4214099;28;20066;-58
2022/07/26 11:59:32;;;;;;;1.60;1.40;;;;;;;;;;4213600;28;20105;-58
2022/07/26 12:01:36;;;;;;;1.63;1.52;;;;;;;;;;4213876;28;20091;-58
2022/07/26 12:03:41;;;;;;;1.65;1.55;;;;;;;;;;4213799;28;20417;-58
2022/07/26 12:05:42;;;;;;;2.63;1.92;;;;;;;;;;4213823;28;20032;-58
2022/07/26 12:07:55;;;;;;;1.60;1.20;;;;;;;;;;4213886;28;20036;-59
2022/07/26 12:09:57;;;;;;;3.72;1.90;;;;;;;;;;4213593;28;20028;-58
2022/07/26 12:11:58;;;;;;;1.92;1.70;;;;;;;;;;4213695;28;20028;-58
2022/07/26 12:14:00;;;;;;;1.83;1.73;;;;;;;;;;4213703;28;20081;-58
2022/07/26 12:16:01;;;;;;;2.97;1.52;;;;;;;;;;4213530;28;20126;-59
2022/07/26 12:18:02;;;;;;;1.65;1.55;;;;;;;;;;4214273;28;20016;-58
2022/07/26 12:20:16;;;;;;;1.98;1.40;;;;;;;;;;4213377;28;20098;-59